createdAt,value
2018-06-27T00:00:22.825Z,77.90
2018-06-27T00:02:57.840Z,78.40
2018-06-27T00:05:32.267Z,79.70
2018-06-27T00:08:04.935Z,80.70
2018-06-27T00:10:38.303Z,78.20
2018-06-27T00:13:13.859Z,79.80
2018-06-27T00:15:47.699Z,79.50
2018-06-27T00:18:20.119Z,78.20
2018-06-27T00:21:02.891Z,79.20
2018-06-27T00:23:41.995Z,79.70
2018-06-27T00:26:15.130Z,78.50
2018-06-27T00:28:49.566Z,77.80
2018-06-27T00:31:22.464Z,79.10
2018-06-27T00:34:01.877Z,77.90
2018-06-27T00:36:35.445Z,78.10
2018-06-27T00:39:14.688Z,79.40
2018-06-27T00:41:51.479Z,78.20
2018-06-27T00:44:28.860Z,78.60
2018-06-27T00:47:05.648Z,78.70
2018-06-27T00:49:44.773Z,79.50
2018-06-27T00:52:27.423Z,78.50
2018-06-27T00:55:00.642Z,79.50
2018-06-27T00:57:40.001Z,80.30
2018-06-27T01:00:17.813Z,79.20
2018-06-27T01:02:50.500Z,79.90
2018-06-27T01:05:28.359Z,78.90
2018-06-27T01:08:04.055Z,79.20
2018-06-27T01:10:38.540Z,79.40
2018-06-27T01:13:17.697Z,79.00
2018-06-27T01:15:48.393Z,80.00
2018-06-27T01:18:19.227Z,79.20
2018-06-27T01:20:50.547Z,80.00
2018-06-27T01:23:24.405Z,79.40
2018-06-27T01:25:56.305Z,80.20
2018-06-27T01:28:27.385Z,80.00
2018-06-27T01:30:58.391Z,80.90
2018-06-27T01:33:35.291Z,80.90
2018-06-27T01:36:07.419Z,80.90
2018-06-27T01:38:37.870Z,81.00
2018-06-27T01:41:09.014Z,81.30
2018-06-27T01:43:39.912Z,81.80
2018-06-27T01:46:11.385Z,82.00
2018-06-27T01:48:45.636Z,81.10
2018-06-27T01:51:24.937Z,81.90
2018-06-27T01:53:58.739Z,81.80
2018-06-27T01:56:31.657Z,82.30
2018-06-27T01:59:10.702Z,81.30
2018-06-27T02:01:45.863Z,82.00
2018-06-27T02:04:16.425Z,82.20
2018-06-27T02:06:53.375Z,82.20
2018-06-27T02:09:28.562Z,81.00
2018-06-27T02:12:02.138Z,82.70
2018-06-27T02:14:37.255Z,82.10
2018-06-27T02:17:09.676Z,82.50
2018-06-27T02:19:47.575Z,83.50
2018-06-27T02:22:30.040Z,83.30
2018-06-27T02:25:04.774Z,82.80
2018-06-27T02:27:39.622Z,81.60
2018-06-27T02:30:12.411Z,83.60
2018-06-27T02:32:48.171Z,84.40
2018-06-27T02:35:19.902Z,84.50
2018-06-27T02:37:51.418Z,83.10
2018-06-27T02:40:23.523Z,84.50
2018-06-27T02:42:56.184Z,84.10
2018-06-27T02:45:27.228Z,84.10
2018-06-27T02:48:01.307Z,84.20
2018-06-27T02:50:33.020Z,85.60
2018-06-27T02:53:04.551Z,84.90
2018-06-27T02:55:37.219Z,85.00
2018-06-27T02:58:08.963Z,84.90
2018-06-27T03:00:40.615Z,84.90
2018-06-27T03:03:13.371Z,86.70
2018-06-27T03:05:45.613Z,85.30
2018-06-27T03:08:24.218Z,85.30
2018-06-27T03:10:55.070Z,85.60
2018-06-27T03:13:27.865Z,85.60
2018-06-27T03:16:14.631Z,85.60
2018-06-27T03:19:00.413Z,87.10
2018-06-27T03:21:46.843Z,87.20
2018-06-27T03:24:20.527Z,85.60
2018-06-27T03:26:57.714Z,86.30
2018-06-27T03:29:28.922Z,86.80
2018-06-27T03:32:14.032Z,85.90
2018-06-27T03:34:46.610Z,85.60
2018-06-27T03:37:21.916Z,86.80
2018-06-27T03:39:54.129Z,86.50
2018-06-27T03:42:26.517Z,86.30
2018-06-27T03:44:57.721Z,86.00
2018-06-27T03:47:30.145Z,84.90
2018-06-27T03:50:06.751Z,85.80
2018-06-27T03:52:45.203Z,86.00
2018-06-27T03:55:16.440Z,85.70
2018-06-27T03:57:50.450Z,85.00
2018-06-27T04:00:21.775Z,84.30
2018-06-27T04:05:40.398Z,83.90
2018-06-27T04:08:11.570Z,84.30
2018-06-27T04:10:47.967Z,83.10
2018-06-27T04:13:23.411Z,82.70
2018-06-27T04:15:53.829Z,82.80
2018-06-27T04:18:34.408Z,81.80
2018-06-27T04:21:17.228Z,80.70
2018-06-27T04:23:51.421Z,80.20
2018-06-27T04:26:22.759Z,80.00
2018-06-27T04:29:01.715Z,80.20
2018-06-27T04:31:39.328Z,78.30
2018-06-27T04:34:42.331Z,77.90
2018-06-27T04:37:23.487Z,77.40
2018-06-27T04:42:47.379Z,78.00
2018-06-27T04:48:03.000Z,77.50
2018-06-27T04:50:36.638Z,77.20
2018-06-27T04:53:08.490Z,77.10
2018-06-27T04:56:04.147Z,76.60
2018-06-27T04:58:54.428Z,75.80
2018-06-27T05:01:38.539Z,74.10
2018-06-27T05:04:18.416Z,73.10
2018-06-27T05:06:49.922Z,70.50
2018-06-27T05:09:21.663Z,67.70
2018-06-27T05:12:08.177Z,65.90
2018-06-27T05:14:47.924Z,61.20
2018-06-27T05:17:23.051Z,58.60
2018-06-27T05:19:54.473Z,58.30
2018-06-27T05:22:30.078Z,57.00
2018-06-27T05:28:49.245Z,58.50
2018-06-27T05:36:32.478Z,60.00
2018-06-27T05:45:24.096Z,54.60
2018-06-27T06:08:12.733Z,56.70
2018-06-27T06:10:49.405Z,57.10
2018-06-27T06:13:35.310Z,57.50
2018-06-27T06:19:22.489Z,58.10
2018-06-27T06:25:47.120Z,57.10
2018-06-27T06:28:29.147Z,57.10
2018-06-27T06:31:23.587Z,57.80
2018-06-27T06:41:25.603Z,56.50
2018-06-27T06:43:59.571Z,54.40
2018-06-27T06:46:56.871Z,53.00
2018-06-27T06:53:18.892Z,51.10
2018-06-27T06:57:51.092Z,46.60
2018-06-27T07:00:55.551Z,46.60
2018-06-27T07:04:07.848Z,45.70
2018-06-27T07:06:41.340Z,43.40
2018-06-27T07:13:19.626Z,43.00
2018-06-27T07:16:08.074Z,41.70
2018-06-27T07:19:20.469Z,42.40
2018-06-27T07:22:11.294Z,43.70
2018-06-27T07:24:52.481Z,46.20
2018-06-27T07:27:29.630Z,48.00
2018-06-27T07:30:12.558Z,48.50
2018-06-27T07:32:48.541Z,47.70
2018-06-27T07:38:49.175Z,44.40
2018-06-27T07:41:34.655Z,44.50
2018-06-27T07:44:17.276Z,44.70
2018-06-27T07:46:49.392Z,46.20
2018-06-27T07:49:38.664Z,45.10
2018-06-27T07:56:10.191Z,46.60
2018-06-27T07:58:51.776Z,47.80
2018-06-27T08:07:49.238Z,52.90
2018-06-27T08:10:33.796Z,53.10
2018-06-27T08:13:35.978Z,54.10
2018-06-27T08:16:22.596Z,52.90
2018-06-27T08:19:22.060Z,50.40
2018-06-27T08:21:53.658Z,48.60
2018-06-27T08:24:39.696Z,47.50
2018-06-27T08:30:04.373Z,46.90
2018-06-27T08:32:42.744Z,47.00
2018-06-27T08:35:14.702Z,45.70
2018-06-27T08:38:28.534Z,45.90
2018-06-27T08:40:59.891Z,44.00
2018-06-27T08:43:47.230Z,42.60
2018-06-27T08:46:35.916Z,39.90
2018-06-27T08:51:15.433Z,40.80
2018-06-27T08:53:52.153Z,38.60
2018-06-27T09:00:25.554Z,37.50
2018-06-27T09:17:05.665Z,42.80
2018-06-27T09:32:40.841Z,35.70
2018-06-27T09:41:47.773Z,37.00
2018-06-27T10:04:19.571Z,38.90
2018-06-27T10:28:49.263Z,41.80
2018-06-27T10:43:01.198Z,39.50
2018-06-27T10:48:47.356Z,42.00
2018-06-27T10:58:09.549Z,42.00
2018-06-27T11:04:04.217Z,40.80
2018-06-27T11:06:50.592Z,39.90
2018-06-27T11:18:58.084Z,42.10
2018-06-27T11:24:33.917Z,42.50
2018-06-27T11:33:09.800Z,42.10
2018-06-27T11:48:32.011Z,38.90
2018-06-27T11:51:54.025Z,39.90
2018-06-27T11:54:47.322Z,40.20
2018-06-27T12:10:41.586Z,40.30
2018-06-27T12:13:23.215Z,39.20
2018-06-27T12:23:10.155Z,37.40
2018-06-27T12:30:02.466Z,39.80
2018-06-27T12:40:12.219Z,42.30
2018-06-27T12:42:46.551Z,42.70
2018-06-27T12:45:19.159Z,42.20
2018-06-27T12:47:50.532Z,41.90
2018-06-27T12:57:58.543Z,39.00
2018-06-27T13:16:53.774Z,42.90
2018-06-27T13:20:19.811Z,42.90
2018-06-27T13:34:16.841Z,42.20
2018-06-27T13:42:14.489Z,41.40
2018-06-27T14:02:10.368Z,42.70
2018-06-27T14:05:32.644Z,42.90
2018-06-27T14:23:52.759Z,38.60
2018-06-27T14:30:28.210Z,40.20
2018-06-27T14:33:04.124Z,38.60
2018-06-27T14:36:49.513Z,38.30
2018-06-27T15:11:20.726Z,40.60
2018-06-27T15:14:38.126Z,38.60
2018-06-27T15:17:32.839Z,39.10
2018-06-27T15:20:47.480Z,38.20
2018-06-27T15:23:32.955Z,37.70
2018-06-27T15:26:12.525Z,38.10
2018-06-27T15:28:48.169Z,37.50
2018-06-27T15:31:28.000Z,37.80
2018-06-27T15:34:14.427Z,37.50
2018-06-27T15:36:51.060Z,37.70
2018-06-27T15:45:34.664Z,39.40
2018-06-27T15:48:20.059Z,40.20
2018-06-27T15:54:12.978Z,41.80
2018-06-27T15:57:10.946Z,42.10
2018-06-27T17:00:25.922Z,41.50
2018-06-27T17:09:28.470Z,40.20
2018-06-27T17:12:37.029Z,39.70
2018-06-27T17:25:02.844Z,39.70
2018-06-27T17:27:42.273Z,39.80
2018-06-27T17:30:35.907Z,39.40
2018-06-27T17:36:55.584Z,39.90
2018-06-27T17:43:29.525Z,39.80
2018-06-27T17:46:41.671Z,39.00
2018-06-27T17:49:26.170Z,38.70
2018-06-27T17:52:53.551Z,39.50
2018-06-27T17:59:47.021Z,40.50
2018-06-27T18:02:21.488Z,40.80
2018-06-27T18:04:57.731Z,41.00
2018-06-27T18:08:04.679Z,41.40
2018-06-27T18:24:54.093Z,43.00
2018-06-27T18:27:57.992Z,43.60
